sensor_id;sensor_type;location;lat;lon;timestamp;P1;durP1;ratioP1;P2;durP2;ratioP2
10705;SDS011;5404;42.656;23.336;2023-11-22T00:01:59;46.83;;;22.98;;
10705;SDS011;5404;42.656;23.336;2023-11-22T00:04:24;52.05;;;24.50;;
10705;SDS011;5404;42.656;23.336;2023-11-22T00:06:50;43.38;;;23.17;;
10705;SDS011;5404;42.656;23.336;2023-11-22T00:09:15;49.50;;;24.00;;
10705;SDS011;5404;42.656;23.336;2023-11-22T00:11:41;52.33;;;23.92;;
10705;SDS011;5404;42.656;23.336;2023-11-22T00:14:06;48.58;;;23.73;;
10705;SDS011;5404;42.656;23.336;2023-11-22T00:16:32;48.10;;;23.10;;
10705;SDS011;5404;42.656;23.336;2023-11-22T00:18:57;51.30;;;23.75;;
10705;SDS011;5404;42.656;23.336;2023-11-22T00:21:23;48.08;;;23.67;;
10705;SDS011;5404;42.656;23.336;2023-11-22T00:23:49;45.05;;;22.98;;
10705;SDS011;5404;42.656;23.336;2023-11-22T00:26:15;48.90;;;23.60;;
10705;SDS011;5404;42.656;23.336;2023-11-22T00:28:40;49.00;;;23.15;;
10705;SDS011;5404;42.656;23.336;2023-11-22T00:31:06;54.63;;;22.42;;
10705;SDS011;5404;42.656;23.336;2023-11-22T00:33:31;36.83;;;21.35;;
10705;SDS011;5404;42.656;23.336;2023-11-22T00:35:57;42.13;;;20.45;;
10705;SDS011;5404;42.656;23.336;2023-11-22T00:38:24;41.72;;;20.58;;
10705;SDS011;5404;42.656;23.336;2023-11-22T00:40:49;39.75;;;21.77;;
10705;SDS011;5404;42.656;23.336;2023-11-22T00:43:18;44.15;;;22.02;;
10705;SDS011;5404;42.656;23.336;2023-11-22T00:45:44;43.28;;;23.10;;
10705;SDS011;5404;42.656;23.336;2023-11-22T00:48:10;44.00;;;21.70;;
10705;SDS011;5404;42.656;23.336;2023-11-22T00:50:37;42.03;;;21.90;;
10705;SDS011;5404;42.656;23.336;2023-11-22T00:53:02;38.67;;;19.20;;
10705;SDS011;5404;42.656;23.336;2023-11-22T00:55:28;46.60;;;23.55;;
10705;SDS011;5404;42.656;23.336;2023-11-22T00:57:54;45.53;;;22.42;;
10705;SDS011;5404;42.656;23.336;2023-11-22T01:00:21;41.45;;;22.17;;
10705;SDS011;5404;42.656;23.336;2023-11-22T01:02:46;40.03;;;21.95;;
10705;SDS011;5404;42.656;23.336;2023-11-22T01:05:12;41.28;;;21.38;;
10705;SDS011;5404;42.656;23.336;2023-11-22T01:07:38;51.50;;;20.02;;
10705;SDS011;5404;42.656;23.336;2023-11-22T01:10:03;45.85;;;21.17;;
10705;SDS011;5404;42.656;23.336;2023-11-22T01:12:30;43.22;;;21.52;;
10705;SDS011;5404;42.656;23.336;2023-11-22T01:14:56;37.13;;;20.77;;
10705;SDS011;5404;42.656;23.336;2023-11-22T01:17:21;43.60;;;21.60;;
10705;SDS011;5404;42.656;23.336;2023-11-22T01:19:47;40.60;;;21.17;;
10705;SDS011;5404;42.656;23.336;2023-11-22T01:22:12;46.63;;;21.27;;
10705;SDS011;5404;42.656;23.336;2023-11-22T01:24:39;39.22;;;19.90;;
10705;SDS011;5404;42.656;23.336;2023-11-22T01:27:04;44.67;;;21.52;;
10705;SDS011;5404;42.656;23.336;2023-11-22T01:29:30;36.25;;;21.40;;
10705;SDS011;5404;42.656;23.336;2023-11-22T01:31:55;42.50;;;23.00;;
10705;SDS011;5404;42.656;23.336;2023-11-22T01:34:21;40.55;;;21.40;;
10705;SDS011;5404;42.656;23.336;2023-11-22T01:36:49;37.72;;;20.85;;
10705;SDS011;5404;42.656;23.336;2023-11-22T01:39:16;46.72;;;22.23;;
10705;SDS011;5404;42.656;23.336;2023-11-22T01:41:44;39.60;;;21.02;;
10705;SDS011;5404;42.656;23.336;2023-11-22T01:44:10;40.58;;;21.15;;
10705;SDS011;5404;42.656;23.336;2023-11-22T01:46:37;45.63;;;22.00;;
10705;SDS011;5404;42.656;23.336;2023-11-22T01:49:03;43.40;;;23.08;;
10705;SDS011;5404;42.656;23.336;2023-11-22T01:51:28;46.55;;;22.48;;
10705;SDS011;5404;42.656;23.336;2023-11-22T01:53:54;41.03;;;20.70;;
10705;SDS011;5404;42.656;23.336;2023-11-22T01:56:22;48.90;;;22.33;;
10705;SDS011;5404;42.656;23.336;2023-11-22T01:58:49;39.20;;;21.30;;
10705;SDS011;5404;42.656;23.336;2023-11-22T02:01:15;44.40;;;22.02;;
10705;SDS011;5404;42.656;23.336;2023-11-22T02:03:41;44.63;;;21.70;;
10705;SDS011;5404;42.656;23.336;2023-11-22T02:06:07;42.38;;;21.80;;
10705;SDS011;5404;42.656;23.336;2023-11-22T02:08:36;39.80;;;21.65;;
10705;SDS011;5404;42.656;23.336;2023-11-22T02:11:02;39.40;;;22.02;;
10705;SDS011;5404;42.656;23.336;2023-11-22T02:13:29;45.22;;;20.92;;
10705;SDS011;5404;42.656;23.336;2023-11-22T02:15:55;42.00;;;21.35;;
10705;SDS011;5404;42.656;23.336;2023-11-22T02:18:25;43.78;;;22.27;;
10705;SDS011;5404;42.656;23.336;2023-11-22T02:20:51;42.78;;;21.42;;
10705;SDS011;5404;42.656;23.336;2023-11-22T02:23:16;42.70;;;20.70;;
10705;SDS011;5404;42.656;23.336;2023-11-22T02:25:42;39.67;;;20.60;;
10705;SDS011;5404;42.656;23.336;2023-11-22T02:28:08;43.95;;;20.95;;
10705;SDS011;5404;42.656;23.336;2023-11-22T02:30:33;44.05;;;22.35;;
10705;SDS011;5404;42.656;23.336;2023-11-22T02:32:59;37.50;;;19.67;;
10705;SDS011;5404;42.656;23.336;2023-11-22T02:35:25;45.30;;;20.83;;
10705;SDS011;5404;42.656;23.336;2023-11-22T02:37:52;45.30;;;20.92;;
10705;SDS011;5404;42.656;23.336;2023-11-22T02:42:53;45.47;;;20.08;;
10705;SDS011;5404;42.656;23.336;2023-11-22T02:45:23;42.35;;;22.50;;
10705;SDS011;5404;42.656;23.336;2023-11-22T02:47:51;38.40;;;20.48;;
10705;SDS011;5404;42.656;23.336;2023-11-22T02:50:17;41.40;;;20.55;;
10705;SDS011;5404;42.656;23.336;2023-11-22T02:52:43;41.42;;;20.95;;
10705;SDS011;5404;42.656;23.336;2023-11-22T02:55:08;41.53;;;21.30;;
10705;SDS011;5404;42.656;23.336;2023-11-22T02:57:35;42.08;;;20.88;;
10705;SDS011;5404;42.656;23.336;2023-11-22T03:00:01;42.03;;;20.77;;
10705;SDS011;5404;42.656;23.336;2023-11-22T03:02:29;42.35;;;20.45;;
10705;SDS011;5404;42.656;23.336;2023-11-22T03:04:57;61.75;;;24.55;;
10705;SDS011;5404;42.656;23.336;2023-11-22T03:07:23;39.97;;;22.05;;
10705;SDS011;5404;42.656;23.336;2023-11-22T03:09:49;51.00;;;22.25;;
10705;SDS011;5404;42.656;23.336;2023-11-22T03:12:15;41.95;;;21.30;;
10705;SDS011;5404;42.656;23.336;2023-11-22T03:14:41;38.03;;;20.00;;
10705;SDS011;5404;42.656;23.336;2023-11-22T03:17:06;38.10;;;18.98;;
10705;SDS011;5404;42.656;23.336;2023-11-22T03:19:33;41.03;;;19.75;;
10705;SDS011;5404;42.656;23.336;2023-11-22T03:21:59;44.85;;;21.45;;
10705;SDS011;5404;42.656;23.336;2023-11-22T03:24:25;43.65;;;21.45;;
10705;SDS011;5404;42.656;23.336;2023-11-22T03:26:50;41.33;;;20.48;;
10705;SDS011;5404;42.656;23.336;2023-11-22T03:29:17;43.58;;;19.92;;
10705;SDS011;5404;42.656;23.336;2023-11-22T03:31:44;49.55;;;20.83;;
10705;SDS011;5404;42.656;23.336;2023-11-22T03:34:11;44.47;;;21.83;;
10705;SDS011;5404;42.656;23.336;2023-11-22T03:36:40;37.55;;;20.85;;
10705;SDS011;5404;42.656;23.336;2023-11-22T03:39:05;47.47;;;20.73;;
10705;SDS011;5404;42.656;23.336;2023-11-22T03:41:31;39.58;;;20.17;;
10705;SDS011;5404;42.656;23.336;2023-11-22T03:43:57;37.78;;;21.35;;
10705;SDS011;5404;42.656;23.336;2023-11-22T03:46:23;41.65;;;21.75;;
10705;SDS011;5404;42.656;23.336;2023-11-22T03:48:49;49.35;;;20.40;;
10705;SDS011;5404;42.656;23.336;2023-11-22T03:51:14;46.58;;;21.38;;
10705;SDS011;5404;42.656;23.336;2023-11-22T03:53:40;47.47;;;22.33;;
10705;SDS011;5404;42.656;23.336;2023-11-22T03:56:07;48.45;;;21.10;;
10705;SDS011;5404;42.656;23.336;2023-11-22T03:58:33;42.83;;;20.48;;
10705;SDS011;5404;42.656;23.336;2023-11-22T04:00:59;38.72;;;20.50;;
10705;SDS011;5404;42.656;23.336;2023-11-22T04:03:27;39.75;;;20.15;;
10705;SDS011;5404;42.656;23.336;2023-11-22T04:05:53;43.17;;;20.35;;
10705;SDS011;5404;42.656;23.336;2023-11-22T04:08:18;41.53;;;20.52;;
10705;SDS011;5404;42.656;23.336;2023-11-22T04:10:45;35.13;;;18.20;;
10705;SDS011;5404;42.656;23.336;2023-11-22T04:13:10;35.20;;;19.70;;
10705;SDS011;5404;42.656;23.336;2023-11-22T04:15:36;35.13;;;18.65;;
10705;SDS011;5404;42.656;23.336;2023-11-22T04:18:01;38.00;;;19.40;;
10705;SDS011;5404;42.656;23.336;2023-11-22T04:20:27;39.92;;;20.08;;
10705;SDS011;5404;42.656;23.336;2023-11-22T04:22:52;44.10;;;19.95;;
10705;SDS011;5404;42.656;23.336;2023-11-22T04:25:18;38.80;;;19.10;;
10705;SDS011;5404;42.656;23.336;2023-11-22T04:27:43;39.85;;;20.40;;
10705;SDS011;5404;42.656;23.336;2023-11-22T04:30:09;43.20;;;18.73;;
10705;SDS011;5404;42.656;23.336;2023-11-22T04:32:39;41.45;;;20.17;;
10705;SDS011;5404;42.656;23.336;2023-11-22T04:35:17;45.90;;;20.88;;
10705;SDS011;5404;42.656;23.336;2023-11-22T04:37:42;40.88;;;20.58;;
10705;SDS011;5404;42.656;23.336;2023-11-22T04:40:08;35.40;;;18.77;;
10705;SDS011;5404;42.656;23.336;2023-11-22T04:42:36;46.15;;;20.23;;
10705;SDS011;5404;42.656;23.336;2023-11-22T04:45:02;41.25;;;21.23;;
10705;SDS011;5404;42.656;23.336;2023-11-22T04:47:28;48.45;;;21.33;;
10705;SDS011;5404;42.656;23.336;2023-11-22T04:49:53;42.03;;;20.17;;
10705;SDS011;5404;42.656;23.336;2023-11-22T04:52:20;44.42;;;20.35;;
10705;SDS011;5404;42.656;23.336;2023-11-22T04:54:45;37.83;;;19.40;;
10705;SDS011;5404;42.656;23.336;2023-11-22T04:57:10;39.80;;;19.48;;
10705;SDS011;5404;42.656;23.336;2023-11-22T04:59:36;39.25;;;19.30;;
10705;SDS011;5404;42.656;23.336;2023-11-22T05:02:03;37.25;;;19.63;;
10705;SDS011;5404;42.656;23.336;2023-11-22T05:04:28;40.63;;;21.13;;
10705;SDS011;5404;42.656;23.336;2023-11-22T05:06:54;48.95;;;22.42;;
10705;SDS011;5404;42.656;23.336;2023-11-22T05:09:19;39.30;;;20.52;;
10705;SDS011;5404;42.656;23.336;2023-11-22T05:11:45;41.28;;;20.70;;
10705;SDS011;5404;42.656;23.336;2023-11-22T05:14:11;38.85;;;21.35;;
10705;SDS011;5404;42.656;23.336;2023-11-22T05:16:36;43.72;;;21.73;;
10705;SDS011;5404;42.656;23.336;2023-11-22T05:19:02;47.45;;;21.13;;
10705;SDS011;5404;42.656;23.336;2023-11-22T05:21:27;48.17;;;20.48;;
10705;SDS011;5404;42.656;23.336;2023-11-22T05:23:53;37.33;;;19.48;;
10705;SDS011;5404;42.656;23.336;2023-11-22T05:26:19;37.15;;;20.70;;
10705;SDS011;5404;42.656;23.336;2023-11-22T05:28:45;40.13;;;20.13;;
10705;SDS011;5404;42.656;23.336;2023-11-22T05:31:12;42.33;;;21.85;;
10705;SDS011;5404;42.656;23.336;2023-11-22T05:33:38;50.13;;;20.40;;
10705;SDS011;5404;42.656;23.336;2023-11-22T05:36:04;37.83;;;20.70;;
10705;SDS011;5404;42.656;23.336;2023-11-22T05:38:30;44.22;;;23.85;;
10705;SDS011;5404;42.656;23.336;2023-11-22T05:40:58;50.67;;;22.08;;
10705;SDS011;5404;42.656;23.336;2023-11-22T05:43:23;42.97;;;22.92;;
10705;SDS011;5404;42.656;23.336;2023-11-22T05:45:53;42.60;;;23.25;;
10705;SDS011;5404;42.656;23.336;2023-11-22T05:48:19;43.95;;;22.13;;
10705;SDS011;5404;42.656;23.336;2023-11-22T05:50:45;47.78;;;24.15;;
10705;SDS011;5404;42.656;23.336;2023-11-22T05:53:11;47.13;;;23.25;;
10705;SDS011;5404;42.656;23.336;2023-11-22T05:55:37;49.05;;;22.25;;
10705;SDS011;5404;42.656;23.336;2023-11-22T05:58:05;45.03;;;22.83;;
10705;SDS011;5404;42.656;23.336;2023-11-22T06:00:31;40.80;;;20.17;;
10705;SDS011;5404;42.656;23.336;2023-11-22T06:02:56;42.17;;;22.13;;
10705;SDS011;5404;42.656;23.336;2023-11-22T06:05:22;38.05;;;21.20;;
10705;SDS011;5404;42.656;23.336;2023-11-22T06:07:47;37.53;;;22.67;;
10705;SDS011;5404;42.656;23.336;2023-11-22T06:10:13;46.25;;;23.30;;
10705;SDS011;5404;42.656;23.336;2023-11-22T06:12:40;39.00;;;20.85;;
10705;SDS011;5404;42.656;23.336;2023-11-22T06:15:06;46.88;;;21.65;;
10705;SDS011;5404;42.656;23.336;2023-11-22T06:17:32;39.35;;;21.52;;
10705;SDS011;5404;42.656;23.336;2023-11-22T06:19:58;36.10;;;21.38;;
10705;SDS011;5404;42.656;23.336;2023-11-22T06:22:23;36.95;;;19.85;;
10705;SDS011;5404;42.656;23.336;2023-11-22T06:24:48;34.72;;;20.90;;
10705;SDS011;5404;42.656;23.336;2023-11-22T06:27:14;37.05;;;21.75;;
10705;SDS011;5404;42.656;23.336;2023-11-22T06:29:42;37.83;;;20.75;;
10705;SDS011;5404;42.656;23.336;2023-11-22T06:32:12;39.25;;;20.75;;
10705;SDS011;5404;42.656;23.336;2023-11-22T06:34:37;45.45;;;22.13;;
10705;SDS011;5404;42.656;23.336;2023-11-22T06:37:03;39.80;;;20.75;;
10705;SDS011;5404;42.656;23.336;2023-11-22T06:39:29;37.85;;;22.15;;
10705;SDS011;5404;42.656;23.336;2023-11-22T06:41:54;39.63;;;23.65;;
10705;SDS011;5404;42.656;23.336;2023-11-22T06:44:21;40.60;;;22.55;;
10705;SDS011;5404;42.656;23.336;2023-11-22T06:46:47;47.72;;;23.20;;
10705;SDS011;5404;42.656;23.336;2023-11-22T06:49:13;43.65;;;22.80;;
10705;SDS011;5404;42.656;23.336;2023-11-22T06:51:39;54.78;;;27.98;;
10705;SDS011;5404;42.656;23.336;2023-11-22T06:54:05;46.42;;;23.23;;
10705;SDS011;5404;42.656;23.336;2023-11-22T06:56:31;51.97;;;22.50;;
10705;SDS011;5404;42.656;23.336;2023-11-22T06:58:57;46.97;;;23.92;;
10705;SDS011;5404;42.656;23.336;2023-11-22T07:01:23;39.95;;;22.58;;
10705;SDS011;5404;42.656;23.336;2023-11-22T07:03:52;40.22;;;23.25;;
10705;SDS011;5404;42.656;23.336;2023-11-22T07:06:18;47.47;;;23.63;;
10705;SDS011;5404;42.656;23.336;2023-11-22T07:08:46;43.15;;;22.38;;
10705;SDS011;5404;42.656;23.336;2023-11-22T07:11:12;39.33;;;22.52;;
10705;SDS011;5404;42.656;23.336;2023-11-22T07:13:38;41.85;;;22.88;;
10705;SDS011;5404;42.656;23.336;2023-11-22T07:16:05;52.35;;;23.90;;
10705;SDS011;5404;42.656;23.336;2023-11-22T07:18:32;43.28;;;23.83;;
10705;SDS011;5404;42.656;23.336;2023-11-22T07:20:59;49.58;;;24.58;;
10705;SDS011;5404;42.656;23.336;2023-11-22T07:23:25;37.00;;;23.50;;
10705;SDS011;5404;42.656;23.336;2023-11-22T07:28:20;43.20;;;22.80;;
10705;SDS011;5404;42.656;23.336;2023-11-22T07:30:45;41.70;;;25.23;;
10705;SDS011;5404;42.656;23.336;2023-11-22T07:33:13;47.85;;;26.40;;
10705;SDS011;5404;42.656;23.336;2023-11-22T07:35:40;48.85;;;25.60;;
10705;SDS011;5404;42.656;23.336;2023-11-22T07:38:05;44.83;;;24.15;;
10705;SDS011;5404;42.656;23.336;2023-11-22T07:40:33;47.78;;;25.35;;
10705;SDS011;5404;42.656;23.336;2023-11-22T07:42:59;43.70;;;24.52;;
10705;SDS011;5404;42.656;23.336;2023-11-22T07:45:25;41.38;;;24.30;;
10705;SDS011;5404;42.656;23.336;2023-11-22T07:47:50;41.05;;;22.77;;
10705;SDS011;5404;42.656;23.336;2023-11-22T07:50:18;41.30;;;21.85;;
10705;SDS011;5404;42.656;23.336;2023-11-22T07:52:45;52.50;;;24.70;;
10705;SDS011;5404;42.656;23.336;2023-11-22T07:55:11;47.28;;;23.10;;
10705;SDS011;5404;42.656;23.336;2023-11-22T07:57:39;39.60;;;22.98;;
10705;SDS011;5404;42.656;23.336;2023-11-22T08:00:06;46.05;;;21.92;;
10705;SDS011;5404;42.656;23.336;2023-11-22T08:02:33;38.80;;;21.27;;
10705;SDS011;5404;42.656;23.336;2023-11-22T08:05:01;41.10;;;22.10;;
10705;SDS011;5404;42.656;23.336;2023-11-22T08:07:28;41.33;;;23.75;;
10705;SDS011;5404;42.656;23.336;2023-11-22T08:09:54;40.90;;;22.65;;
10705;SDS011;5404;42.656;23.336;2023-11-22T08:12:20;46.97;;;22.25;;
10705;SDS011;5404;42.656;23.336;2023-11-22T08:14:46;38.33;;;20.85;;
10705;SDS011;5404;42.656;23.336;2023-11-22T08:17:11;42.22;;;22.42;;
10705;SDS011;5404;42.656;23.336;2023-11-22T08:19:37;43.60;;;23.33;;
10705;SDS011;5404;42.656;23.336;2023-11-22T08:22:05;53.85;;;21.80;;
10705;SDS011;5404;42.656;23.336;2023-11-22T08:24:30;37.92;;;21.05;;
10705;SDS011;5404;42.656;23.336;2023-11-22T08:26:57;37.30;;;20.17;;
10705;SDS011;5404;42.656;23.336;2023-11-22T08:29:23;36.10;;;20.50;;
10705;SDS011;5404;42.656;23.336;2023-11-22T08:31:49;34.53;;;20.55;;
10705;SDS011;5404;42.656;23.336;2023-11-22T08:34:17;36.30;;;20.88;;
10705;SDS011;5404;42.656;23.336;2023-11-22T08:36:43;35.88;;;19.60;;
10705;SDS011;5404;42.656;23.336;2023-11-22T08:39:08;33.33;;;18.70;;
10705;SDS011;5404;42.656;23.336;2023-11-22T08:41:35;35.50;;;18.33;;
10705;SDS011;5404;42.656;23.336;2023-11-22T08:44:01;34.00;;;18.98;;
10705;SDS011;5404;42.656;23.336;2023-11-22T08:46:27;38.65;;;19.75;;
10705;SDS011;5404;42.656;23.336;2023-11-22T08:48:52;41.15;;;22.25;;
10705;SDS011;5404;42.656;23.336;2023-11-22T08:51:18;34.60;;;19.55;;
10705;SDS011;5404;42.656;23.336;2023-11-22T08:53:43;32.47;;;19.52;;
10705;SDS011;5404;42.656;23.336;2023-11-22T08:56:09;30.25;;;18.88;;
10705;SDS011;5404;42.656;23.336;2023-11-22T08:58:36;31.67;;;18.25;;
10705;SDS011;5404;42.656;23.336;2023-11-22T09:01:03;35.40;;;17.80;;
10705;SDS011;5404;42.656;23.336;2023-11-22T09:03:30;41.10;;;18.88;;
10705;SDS011;5404;42.656;23.336;2023-11-22T09:05:56;32.97;;;20.08;;
10705;SDS011;5404;42.656;23.336;2023-11-22T09:08:21;44.50;;;18.88;;
10705;SDS011;5404;42.656;23.336;2023-11-22T09:10:47;32.75;;;18.33;;
10705;SDS011;5404;42.656;23.336;2023-11-22T09:13:12;34.40;;;17.40;;
10705;SDS011;5404;42.656;23.336;2023-11-22T09:18:09;34.30;;;19.67;;
10705;SDS011;5404;42.656;23.336;2023-11-22T09:20:35;33.03;;;18.75;;
10705;SDS011;5404;42.656;23.336;2023-11-22T09:23:00;29.90;;;19.10;;
10705;SDS011;5404;42.656;23.336;2023-11-22T09:25:26;34.40;;;17.98;;
10705;SDS011;5404;42.656;23.336;2023-11-22T09:27:55;31.65;;;19.85;;
10705;SDS011;5404;42.656;23.336;2023-11-22T09:30:33;38.22;;;20.83;;
10705;SDS011;5404;42.656;23.336;2023-11-22T09:35:30;39.58;;;21.52;;
10705;SDS011;5404;42.656;23.336;2023-11-22T09:37:57;43.63;;;21.50;;
10705;SDS011;5404;42.656;23.336;2023-11-22T09:40:36;49.75;;;24.48;;
10705;SDS011;5404;42.656;23.336;2023-11-22T09:43:07;47.35;;;24.65;;
10705;SDS011;5404;42.656;23.336;2023-11-22T09:45:32;47.15;;;26.38;;
10705;SDS011;5404;42.656;23.336;2023-11-22T09:47:58;52.22;;;27.17;;
10705;SDS011;5404;42.656;23.336;2023-11-22T09:53:19;62.60;;;27.45;;
10705;SDS011;5404;42.656;23.336;2023-11-22T09:55:55;54.72;;;28.80;;
10705;SDS011;5404;42.656;23.336;2023-11-22T09:58:22;51.20;;;30.10;;
10705;SDS011;5404;42.656;23.336;2023-11-22T10:00:49;57.78;;;29.95;;
10705;SDS011;5404;42.656;23.336;2023-11-22T10:03:15;50.92;;;29.52;;
10705;SDS011;5404;42.656;23.336;2023-11-22T10:05:43;52.00;;;29.92;;
10705;SDS011;5404;42.656;23.336;2023-11-22T10:08:09;51.38;;;30.50;;
10705;SDS011;5404;42.656;23.336;2023-11-22T10:10:37;51.42;;;29.20;;
10705;SDS011;5404;42.656;23.336;2023-11-22T10:13:05;54.22;;;30.38;;
10705;SDS011;5404;42.656;23.336;2023-11-22T10:15:32;56.08;;;31.60;;
10705;SDS011;5404;42.656;23.336;2023-11-22T10:17:58;54.53;;;30.55;;
10705;SDS011;5404;42.656;23.336;2023-11-22T10:20:48;60.03;;;29.77;;
10705;SDS011;5404;42.656;23.336;2023-11-22T10:23:14;56.53;;;29.83;;
10705;SDS011;5404;42.656;23.336;2023-11-22T10:25:46;51.35;;;28.30;;
10705;SDS011;5404;42.656;23.336;2023-11-22T10:28:14;51.42;;;29.13;;
10705;SDS011;5404;42.656;23.336;2023-11-22T10:30:41;52.63;;;29.80;;
10705;SDS011;5404;42.656;23.336;2023-11-22T10:33:09;55.47;;;30.15;;
10705;SDS011;5404;42.656;23.336;2023-11-22T10:35:38;54.35;;;28.13;;
10705;SDS011;5404;42.656;23.336;2023-11-22T10:38:08;55.17;;;31.25;;
10705;SDS011;5404;42.656;23.336;2023-11-22T10:40:34;51.30;;;29.50;;
10705;SDS011;5404;42.656;23.336;2023-11-22T10:43:01;54.80;;;29.85;;
10705;SDS011;5404;42.656;23.336;2023-11-22T10:45:28;57.20;;;30.70;;
10705;SDS011;5404;42.656;23.336;2023-11-22T10:47:58;51.95;;;30.88;;
10705;SDS011;5404;42.656;23.336;2023-11-22T10:50:25;50.05;;;29.27;;
10705;SDS011;5404;42.656;23.336;2023-11-22T10:52:51;49.00;;;29.15;;
10705;SDS011;5404;42.656;23.336;2023-11-22T10:55:20;51.58;;;28.73;;
10705;SDS011;5404;42.656;23.336;2023-11-22T10:57:51;55.97;;;29.75;;
10705;SDS011;5404;42.656;23.336;2023-11-22T11:00:21;55.25;;;31.70;;
10705;SDS011;5404;42.656;23.336;2023-11-22T11:02:54;58.50;;;29.95;;
10705;SDS011;5404;42.656;23.336;2023-11-22T11:05:32;51.60;;;31.17;;
10705;SDS011;5404;42.656;23.336;2023-11-22T11:08:02;54.45;;;31.38;;
10705;SDS011;5404;42.656;23.336;2023-11-22T11:10:40;54.90;;;32.17;;
10705;SDS011;5404;42.656;23.336;2023-11-22T11:13:07;56.15;;;29.55;;
10705;SDS011;5404;42.656;23.336;2023-11-22T11:15:38;52.25;;;30.92;;
10705;SDS011;5404;42.656;23.336;2023-11-22T11:20:48;51.58;;;29.77;;
10705;SDS011;5404;42.656;23.336;2023-11-22T11:23:21;59.50;;;30.75;;
10705;SDS011;5404;42.656;23.336;2023-11-22T11:25:58;53.70;;;30.77;;
10705;SDS011;5404;42.656;23.336;2023-11-22T11:28:44;62.65;;;30.42;;
10705;SDS011;5404;42.656;23.336;2023-11-22T11:31:12;61.22;;;31.98;;
10705;SDS011;5404;42.656;23.336;2023-11-22T11:36:30;52.53;;;31.08;;
10705;SDS011;5404;42.656;23.336;2023-11-22T11:39:06;58.20;;;31.50;;
10705;SDS011;5404;42.656;23.336;2023-11-22T11:41:40;58.45;;;31.85;;
10705;SDS011;5404;42.656;23.336;2023-11-22T11:44:10;56.88;;;30.38;;
10705;SDS011;5404;42.656;23.336;2023-11-22T11:46:37;49.20;;;30.60;;
10705;SDS011;5404;42.656;23.336;2023-11-22T11:49:07;54.47;;;31.75;;
10705;SDS011;5404;42.656;23.336;2023-11-22T11:51:34;52.60;;;31.40;;
10705;SDS011;5404;42.656;23.336;2023-11-22T11:54:00;58.58;;;34.08;;
10705;SDS011;5404;42.656;23.336;2023-11-22T11:56:25;53.70;;;30.63;;
10705;SDS011;5404;42.656;23.336;2023-11-22T11:58:55;50.55;;;30.48;;
10705;SDS011;5404;42.656;23.336;2023-11-22T12:01:24;56.90;;;31.23;;
10705;SDS011;5404;42.656;23.336;2023-11-22T12:03:49;57.72;;;32.95;;
10705;SDS011;5404;42.656;23.336;2023-11-22T12:06:15;64.30;;;32.78;;
10705;SDS011;5404;42.656;23.336;2023-11-22T12:08:42;54.17;;;30.20;;
10705;SDS011;5404;42.656;23.336;2023-11-22T12:11:08;49.85;;;29.35;;
10705;SDS011;5404;42.656;23.336;2023-11-22T12:13:35;50.70;;;25.20;;
10705;SDS011;5404;42.656;23.336;2023-11-22T12:16:08;43.85;;;23.58;;
10705;SDS011;5404;42.656;23.336;2023-11-22T12:21:13;47.22;;;26.13;;
10705;SDS011;5404;42.656;23.336;2023-11-22T12:23:42;50.35;;;27.00;;
10705;SDS011;5404;42.656;23.336;2023-11-22T12:26:20;42.80;;;26.13;;
10705;SDS011;5404;42.656;23.336;2023-11-22T12:28:47;47.42;;;26.75;;
10705;SDS011;5404;42.656;23.336;2023-11-22T12:31:14;48.00;;;26.05;;
10705;SDS011;5404;42.656;23.336;2023-11-22T12:33:40;45.30;;;25.98;;
10705;SDS011;5404;42.656;23.336;2023-11-22T12:36:06;40.40;;;23.63;;
10705;SDS011;5404;42.656;23.336;2023-11-22T12:38:34;43.78;;;24.27;;
10705;SDS011;5404;42.656;23.336;2023-11-22T12:41:03;48.20;;;25.40;;
10705;SDS011;5404;42.656;23.336;2023-11-22T12:43:31;48.08;;;24.67;;
10705;SDS011;5404;42.656;23.336;2023-11-22T12:48:26;48.70;;;25.85;;
10705;SDS011;5404;42.656;23.336;2023-11-22T12:50:55;36.17;;;22.50;;
10705;SDS011;5404;42.656;23.336;2023-11-22T12:53:23;39.93;;;22.23;;
10705;SDS011;5404;42.656;23.336;2023-11-22T12:55:51;42.07;;;23.00;;
10705;SDS011;5404;42.656;23.336;2023-11-22T12:58:18;42.42;;;22.92;;
10705;SDS011;5404;42.656;23.336;2023-11-22T13:00:45;42.60;;;22.92;;
10705;SDS011;5404;42.656;23.336;2023-11-22T13:03:11;45.65;;;24.20;;
10705;SDS011;5404;42.656;23.336;2023-11-22T13:05:41;43.03;;;23.15;;
10705;SDS011;5404;42.656;23.336;2023-11-22T13:08:10;36.90;;;22.52;;
10705;SDS011;5404;42.656;23.336;2023-11-22T13:10:38;40.15;;;23.25;;
10705;SDS011;5404;42.656;23.336;2023-11-22T13:13:08;51.17;;;29.70;;
10705;SDS011;5404;42.656;23.336;2023-11-22T13:15:34;50.33;;;28.95;;
10705;SDS011;5404;42.656;23.336;2023-11-22T13:18:00;55.03;;;28.00;;
10705;SDS011;5404;42.656;23.336;2023-11-22T13:20:26;54.88;;;29.60;;
10705;SDS011;5404;42.656;23.336;2023-11-22T13:22:52;55.78;;;31.80;;
10705;SDS011;5404;42.656;23.336;2023-11-22T13:25:19;61.50;;;34.25;;
10705;SDS011;5404;42.656;23.336;2023-11-22T13:27:49;63.63;;;35.13;;
10705;SDS011;5404;42.656;23.336;2023-11-22T13:30:16;63.00;;;37.15;;
10705;SDS011;5404;42.656;23.336;2023-11-22T13:32:47;72.70;;;37.92;;
10705;SDS011;5404;42.656;23.336;2023-11-22T13:35:14;75.82;;;37.67;;
10705;SDS011;5404;42.656;23.336;2023-11-22T13:37:40;63.03;;;37.55;;
10705;SDS011;5404;42.656;23.336;2023-11-22T13:40:09;58.73;;;36.27;;
10705;SDS011;5404;42.656;23.336;2023-11-22T13:42:42;63.17;;;36.15;;
10705;SDS011;5404;42.656;23.336;2023-11-22T13:45:08;56.00;;;35.17;;
10705;SDS011;5404;42.656;23.336;2023-11-22T13:47:34;71.53;;;37.80;;
10705;SDS011;5404;42.656;23.336;2023-11-22T13:50:00;73.70;;;39.30;;
10705;SDS011;5404;42.656;23.336;2023-11-22T13:52:25;71.25;;;39.20;;
10705;SDS011;5404;42.656;23.336;2023-11-22T13:54:51;66.13;;;40.13;;
10705;SDS011;5404;42.656;23.336;2023-11-22T13:57:21;73.65;;;42.28;;
10705;SDS011;5404;42.656;23.336;2023-11-22T13:59:46;73.30;;;39.80;;
10705;SDS011;5404;42.656;23.336;2023-11-22T14:02:12;66.80;;;36.75;;
10705;SDS011;5404;42.656;23.336;2023-11-22T14:04:37;61.25;;;38.28;;
10705;SDS011;5404;42.656;23.336;2023-11-22T14:07:04;67.13;;;36.85;;
10705;SDS011;5404;42.656;23.336;2023-11-22T14:09:31;55.58;;;35.50;;
10705;SDS011;5404;42.656;23.336;2023-11-22T14:12:00;58.88;;;31.92;;
10705;SDS011;5404;42.656;23.336;2023-11-22T14:14:26;55.58;;;33.45;;
10705;SDS011;5404;42.656;23.336;2023-11-22T14:16:51;57.40;;;30.85;;
10705;SDS011;5404;42.656;23.336;2023-11-22T14:19:18;58.13;;;29.13;;
10705;SDS011;5404;42.656;23.336;2023-11-22T14:21:43;55.65;;;27.02;;
10705;SDS011;5404;42.656;23.336;2023-11-22T14:24:09;51.30;;;28.38;;
10705;SDS011;5404;42.656;23.336;2023-11-22T14:26:35;48.78;;;25.40;;
10705;SDS011;5404;42.656;23.336;2023-11-22T14:29:01;45.17;;;22.38;;
10705;SDS011;5404;42.656;23.336;2023-11-22T14:31:27;44.20;;;20.83;;
10705;SDS011;5404;42.656;23.336;2023-11-22T14:33:54;39.10;;;20.35;;
10705;SDS011;5404;42.656;23.336;2023-11-22T14:36:21;33.97;;;20.90;;
10705;SDS011;5404;42.656;23.336;2023-11-22T14:38:47;38.83;;;22.15;;
10705;SDS011;5404;42.656;23.336;2023-11-22T14:41:19;42.97;;;20.20;;
10705;SDS011;5404;42.656;23.336;2023-11-22T14:43:44;31.50;;;19.40;;